sensor_id;sensor_type;location;lat;lon;timestamp;P1;durP1;ratioP1;P2;durP2;ratioP2
72517;SDS011;60540;51.178;6.738;2023-08-08T00:00:49;4.28;;;1.50;;
72517;SDS011;60540;51.178;6.738;2023-08-08T00:03:32;2.22;;;1.20;;
72517;SDS011;60540;51.178;6.738;2023-08-08T00:05:57;3.33;;;1.20;;
72517;SDS011;60540;51.178;6.738;2023-08-08T00:08:23;2.83;;;1.02;;
72517;SDS011;60540;51.178;6.738;2023-08-08T00:10:49;4.28;;;1.85;;
72517;SDS011;60540;51.178;6.738;2023-08-08T00:13:15;3.30;;;1.05;;
72517;SDS011;60540;51.178;6.738;2023-08-08T00:15:40;2.80;;;1.30;;
72517;SDS011;60540;51.178;6.738;2023-08-08T00:18:06;3.10;;;1.25;;
72517;SDS011;60540;51.178;6.738;2023-08-08T00:20:32;3.13;;;1.40;;
72517;SDS011;60540;51.178;6.738;2023-08-08T00:22:58;3.47;;;1.30;;
72517;SDS011;60540;51.178;6.738;2023-08-08T00:25:23;2.53;;;1.10;;
72517;SDS011;60540;51.178;6.738;2023-08-08T00:27:49;2.65;;;1.25;;
72517;SDS011;60540;51.178;6.738;2023-08-08T00:30:15;3.58;;;1.25;;
72517;SDS011;60540;51.178;6.738;2023-08-08T00:32:41;3.15;;;1.23;;
72517;SDS011;60540;51.178;6.738;2023-08-08T00:35:07;2.92;;;1.30;;
72517;SDS011;60540;51.178;6.738;2023-08-08T00:37:33;2.75;;;1.20;;
72517;SDS011;60540;51.178;6.738;2023-08-08T00:39:59;5.28;;;1.45;;
72517;SDS011;60540;51.178;6.738;2023-08-08T00:42:25;4.88;;;1.58;;
72517;SDS011;60540;51.178;6.738;2023-08-08T00:44:50;3.72;;;1.35;;
72517;SDS011;60540;51.178;6.738;2023-08-08T00:47:16;2.42;;;1.40;;
72517;SDS011;60540;51.178;6.738;2023-08-08T00:49:42;4.72;;;1.75;;
72517;SDS011;60540;51.178;6.738;2023-08-08T00:52:09;4.03;;;1.50;;
72517;SDS011;60540;51.178;6.738;2023-08-08T00:54:35;3.42;;;1.80;;
72517;SDS011;60540;51.178;6.738;2023-08-08T00:57:01;4.47;;;1.45;;
72517;SDS011;60540;51.178;6.738;2023-08-08T00:59:27;4.15;;;1.48;;
72517;SDS011;60540;51.178;6.738;2023-08-08T01:01:53;4.55;;;1.63;;
72517;SDS011;60540;51.178;6.738;2023-08-08T01:04:18;4.70;;;1.73;;
72517;SDS011;60540;51.178;6.738;2023-08-08T01:06:55;4.10;;;1.80;;
72517;SDS011;60540;51.178;6.738;2023-08-08T01:09:28;3.83;;;1.65;;
72517;SDS011;60540;51.178;6.738;2023-08-08T01:11:58;3.08;;;1.58;;
72517;SDS011;60540;51.178;6.738;2023-08-08T01:14:25;3.20;;;1.67;;
72517;SDS011;60540;51.178;6.738;2023-08-08T01:16:52;3.42;;;1.42;;
72517;SDS011;60540;51.178;6.738;2023-08-08T01:19:25;4.03;;;1.52;;
72517;SDS011;60540;51.178;6.738;2023-08-08T01:21:53;2.75;;;1.42;;
72517;SDS011;60540;51.178;6.738;2023-08-08T01:24:19;7.32;;;1.70;;
72517;SDS011;60540;51.178;6.738;2023-08-08T01:26:47;4.75;;;1.70;;
72517;SDS011;60540;51.178;6.738;2023-08-08T01:29:13;3.22;;;1.40;;
72517;SDS011;60540;51.178;6.738;2023-08-08T01:31:39;3.63;;;1.52;;
72517;SDS011;60540;51.178;6.738;2023-08-08T01:34:04;3.58;;;1.77;;
72517;SDS011;60540;51.178;6.738;2023-08-08T01:36:32;4.35;;;1.85;;
72517;SDS011;60540;51.178;6.738;2023-08-08T01:39:04;5.63;;;1.60;;
72517;SDS011;60540;51.178;6.738;2023-08-08T01:41:34;3.33;;;1.50;;
72517;SDS011;60540;51.178;6.738;2023-08-08T01:44:03;5.57;;;2.13;;
72517;SDS011;60540;51.178;6.738;2023-08-08T01:46:29;3.78;;;1.60;;
72517;SDS011;60540;51.178;6.738;2023-08-08T01:48:57;3.90;;;1.65;;
72517;SDS011;60540;51.178;6.738;2023-08-08T01:51:24;5.90;;;2.10;;
72517;SDS011;60540;51.178;6.738;2023-08-08T01:53:50;4.40;;;1.73;;
72517;SDS011;60540;51.178;6.738;2023-08-08T01:56:17;5.57;;;1.80;;
72517;SDS011;60540;51.178;6.738;2023-08-08T01:58:42;4.05;;;1.40;;
72517;SDS011;60540;51.178;6.738;2023-08-08T02:01:08;4.10;;;1.85;;
72517;SDS011;60540;51.178;6.738;2023-08-08T02:03:34;4.07;;;1.58;;
72517;SDS011;60540;51.178;6.738;2023-08-08T02:06:00;4.03;;;1.50;;
72517;SDS011;60540;51.178;6.738;2023-08-08T02:08:25;3.83;;;1.75;;
72517;SDS011;60540;51.178;6.738;2023-08-08T02:10:51;3.45;;;1.60;;
72517;SDS011;60540;51.178;6.738;2023-08-08T02:13:17;4.05;;;1.70;;
72517;SDS011;60540;51.178;6.738;2023-08-08T02:15:43;4.57;;;1.92;;
72517;SDS011;60540;51.178;6.738;2023-08-08T02:18:08;4.32;;;1.80;;
72517;SDS011;60540;51.178;6.738;2023-08-08T02:20:36;2.83;;;1.42;;
72517;SDS011;60540;51.178;6.738;2023-08-08T02:23:02;3.20;;;1.50;;
72517;SDS011;60540;51.178;6.738;2023-08-08T02:25:28;4.03;;;1.70;;
72517;SDS011;60540;51.178;6.738;2023-08-08T02:27:54;3.70;;;2.05;;
72517;SDS011;60540;51.178;6.738;2023-08-08T02:30:20;5.07;;;1.65;;
72517;SDS011;60540;51.178;6.738;2023-08-08T02:32:46;4.68;;;1.88;;
72517;SDS011;60540;51.178;6.738;2023-08-08T02:35:11;5.55;;;1.90;;
72517;SDS011;60540;51.178;6.738;2023-08-08T02:37:37;4.40;;;1.63;;
72517;SDS011;60540;51.178;6.738;2023-08-08T02:40:04;5.03;;;1.77;;
72517;SDS011;60540;51.178;6.738;2023-08-08T02:42:30;4.88;;;1.40;;
72517;SDS011;60540;51.178;6.738;2023-08-08T02:44:56;4.28;;;2.05;;
72517;SDS011;60540;51.178;6.738;2023-08-08T02:47:22;4.03;;;1.35;;
72517;SDS011;60540;51.178;6.738;2023-08-08T02:49:49;4.38;;;1.58;;
72517;SDS011;60540;51.178;6.738;2023-08-08T02:52:14;3.30;;;1.52;;
72517;SDS011;60540;51.178;6.738;2023-08-08T02:54:40;5.80;;;1.65;;
72517;SDS011;60540;51.178;6.738;2023-08-08T02:57:06;5.20;;;1.55;;
72517;SDS011;60540;51.178;6.738;2023-08-08T02:59:32;2.67;;;1.50;;
72517;SDS011;60540;51.178;6.738;2023-08-08T03:01:57;3.28;;;1.63;;
72517;SDS011;60540;51.178;6.738;2023-08-08T03:04:23;4.93;;;1.65;;
72517;SDS011;60540;51.178;6.738;2023-08-08T03:06:49;7.10;;;1.77;;
72517;SDS011;60540;51.178;6.738;2023-08-08T03:09:15;4.88;;;1.65;;
72517;SDS011;60540;51.178;6.738;2023-08-08T03:11:40;5.00;;;1.83;;
72517;SDS011;60540;51.178;6.738;2023-08-08T03:14:09;5.00;;;1.63;;
72517;SDS011;60540;51.178;6.738;2023-08-08T03:16:34;3.40;;;1.70;;
72517;SDS011;60540;51.178;6.738;2023-08-08T03:19:00;3.83;;;1.48;;
72517;SDS011;60540;51.178;6.738;2023-08-08T03:21:26;6.85;;;2.00;;
72517;SDS011;60540;51.178;6.738;2023-08-08T03:23:52;5.05;;;1.63;;
72517;SDS011;60540;51.178;6.738;2023-08-08T03:26:17;4.18;;;1.83;;
72517;SDS011;60540;51.178;6.738;2023-08-08T03:28:43;4.30;;;1.67;;
72517;SDS011;60540;51.178;6.738;2023-08-08T03:31:09;6.70;;;1.92;;
72517;SDS011;60540;51.178;6.738;2023-08-08T03:33:35;5.00;;;1.67;;
72517;SDS011;60540;51.178;6.738;2023-08-08T03:36:00;5.50;;;1.88;;
72517;SDS011;60540;51.178;6.738;2023-08-08T03:38:26;3.88;;;1.38;;
72517;SDS011;60540;51.178;6.738;2023-08-08T03:40:52;8.55;;;2.22;;
72517;SDS011;60540;51.178;6.738;2023-08-08T03:43:17;8.15;;;2.38;;
72517;SDS011;60540;51.178;6.738;2023-08-08T03:45:44;6.18;;;2.00;;
72517;SDS011;60540;51.178;6.738;2023-08-08T03:48:11;4.03;;;1.83;;
72517;SDS011;60540;51.178;6.738;2023-08-08T03:50:36;3.92;;;1.75;;
72517;SDS011;60540;51.178;6.738;2023-08-08T03:53:02;6.45;;;1.85;;
72517;SDS011;60540;51.178;6.738;2023-08-08T03:55:28;5.55;;;1.80;;
72517;SDS011;60540;51.178;6.738;2023-08-08T03:57:54;4.90;;;2.20;;
72517;SDS011;60540;51.178;6.738;2023-08-08T04:00:20;5.38;;;2.28;;
72517;SDS011;60540;51.178;6.738;2023-08-08T04:02:45;5.88;;;2.22;;
72517;SDS011;60540;51.178;6.738;2023-08-08T04:05:11;3.67;;;2.00;;
72517;SDS011;60540;51.178;6.738;2023-08-08T04:07:37;6.03;;;1.83;;
72517;SDS011;60540;51.178;6.738;2023-08-08T04:10:03;5.32;;;2.03;;
72517;SDS011;60540;51.178;6.738;2023-08-08T04:12:29;7.05;;;2.30;;
72517;SDS011;60540;51.178;6.738;2023-08-08T04:14:55;5.55;;;2.05;;
72517;SDS011;60540;51.178;6.738;2023-08-08T04:17:21;6.53;;;1.90;;
72517;SDS011;60540;51.178;6.738;2023-08-08T04:19:46;8.45;;;2.40;;
72517;SDS011;60540;51.178;6.738;2023-08-08T04:22:13;6.95;;;2.47;;
72517;SDS011;60540;51.178;6.738;2023-08-08T04:24:40;5.75;;;2.25;;
72517;SDS011;60540;51.178;6.738;2023-08-08T04:27:06;3.47;;;1.60;;
72517;SDS011;60540;51.178;6.738;2023-08-08T04:29:32;6.63;;;2.17;;
72517;SDS011;60540;51.178;6.738;2023-08-08T04:31:58;4.13;;;1.90;;
72517;SDS011;60540;51.178;6.738;2023-08-08T04:34:23;4.82;;;1.95;;
72517;SDS011;60540;51.178;6.738;2023-08-08T04:36:49;4.70;;;2.33;;
72517;SDS011;60540;51.178;6.738;2023-08-08T04:39:15;5.43;;;2.08;;
72517;SDS011;60540;51.178;6.738;2023-08-08T04:41:41;6.15;;;2.17;;
72517;SDS011;60540;51.178;6.738;2023-08-08T04:44:06;6.63;;;2.20;;
72517;SDS011;60540;51.178;6.738;2023-08-08T04:46:32;6.07;;;2.78;;
72517;SDS011;60540;51.178;6.738;2023-08-08T04:48:58;5.65;;;2.20;;
72517;SDS011;60540;51.178;6.738;2023-08-08T04:51:23;8.15;;;2.38;;
72517;SDS011;60540;51.178;6.738;2023-08-08T04:53:49;5.78;;;2.30;;
72517;SDS011;60540;51.178;6.738;2023-08-08T04:56:15;6.10;;;2.50;;
72517;SDS011;60540;51.178;6.738;2023-08-08T04:58:40;6.22;;;2.20;;
72517;SDS011;60540;51.178;6.738;2023-08-08T05:01:06;11.25;;;2.55;;
72517;SDS011;60540;51.178;6.738;2023-08-08T05:03:34;6.13;;;2.30;;
72517;SDS011;60540;51.178;6.738;2023-08-08T05:06:00;5.03;;;2.05;;
72517;SDS011;60540;51.178;6.738;2023-08-08T05:08:25;6.43;;;2.63;;
72517;SDS011;60540;51.178;6.738;2023-08-08T05:10:51;6.55;;;2.47;;
72517;SDS011;60540;51.178;6.738;2023-08-08T05:13:17;6.40;;;2.35;;
72517;SDS011;60540;51.178;6.738;2023-08-08T05:15:43;9.88;;;2.47;;
72517;SDS011;60540;51.178;6.738;2023-08-08T05:18:08;7.47;;;2.50;;
72517;SDS011;60540;51.178;6.738;2023-08-08T05:20:34;5.70;;;3.08;;
72517;SDS011;60540;51.178;6.738;2023-08-08T05:23:00;6.07;;;2.95;;
72517;SDS011;60540;51.178;6.738;2023-08-08T05:25:26;9.85;;;2.78;;
72517;SDS011;60540;51.178;6.738;2023-08-08T05:27:51;5.22;;;2.63;;
72517;SDS011;60540;51.178;6.738;2023-08-08T05:30:18;9.52;;;2.35;;
72517;SDS011;60540;51.178;6.738;2023-08-08T05:32:44;6.15;;;2.80;;
72517;SDS011;60540;51.178;6.738;2023-08-08T05:35:10;9.05;;;2.40;;
72517;SDS011;60540;51.178;6.738;2023-08-08T05:37:35;4.97;;;2.63;;
72517;SDS011;60540;51.178;6.738;2023-08-08T05:40:01;6.38;;;2.58;;
72517;SDS011;60540;51.178;6.738;2023-08-08T05:42:27;6.85;;;3.38;;
72517;SDS011;60540;51.178;6.738;2023-08-08T05:44:53;8.40;;;2.78;;
72517;SDS011;60540;51.178;6.738;2023-08-08T05:47:19;6.25;;;2.65;;
72517;SDS011;60540;51.178;6.738;2023-08-08T05:49:45;5.95;;;3.05;;
72517;SDS011;60540;51.178;6.738;2023-08-08T05:52:10;6.40;;;2.97;;
72517;SDS011;60540;51.178;6.738;2023-08-08T05:54:36;5.35;;;2.72;;
72517;SDS011;60540;51.178;6.738;2023-08-08T05:57:02;8.57;;;3.03;;
72517;SDS011;60540;51.178;6.738;2023-08-08T05:59:28;7.18;;;3.45;;
72517;SDS011;60540;51.178;6.738;2023-08-08T06:01:54;5.72;;;2.83;;
72517;SDS011;60540;51.178;6.738;2023-08-08T06:04:19;6.88;;;2.60;;
72517;SDS011;60540;51.178;6.738;2023-08-08T06:06:45;6.25;;;2.65;;
72517;SDS011;60540;51.178;6.738;2023-08-08T06:09:14;6.63;;;2.85;;
72517;SDS011;60540;51.178;6.738;2023-08-08T06:11:40;7.28;;;2.80;;
72517;SDS011;60540;51.178;6.738;2023-08-08T06:14:06;5.18;;;2.70;;
72517;SDS011;60540;51.178;6.738;2023-08-08T06:16:32;7.63;;;2.55;;
72517;SDS011;60540;51.178;6.738;2023-08-08T06:18:57;6.55;;;2.28;;
72517;SDS011;60540;51.178;6.738;2023-08-08T06:21:23;7.28;;;2.63;;
72517;SDS011;60540;51.178;6.738;2023-08-08T06:23:49;7.13;;;2.50;;
72517;SDS011;60540;51.178;6.738;2023-08-08T06:26:15;7.10;;;2.40;;
72517;SDS011;60540;51.178;6.738;2023-08-08T06:28:41;8.07;;;2.30;;
72517;SDS011;60540;51.178;6.738;2023-08-08T06:31:07;6.55;;;2.47;;
72517;SDS011;60540;51.178;6.738;2023-08-08T06:33:33;5.35;;;2.55;;
72517;SDS011;60540;51.178;6.738;2023-08-08T06:35:58;5.68;;;2.40;;
72517;SDS011;60540;51.178;6.738;2023-08-08T06:38:24;6.30;;;2.65;;
72517;SDS011;60540;51.178;6.738;2023-08-08T06:40:50;5.32;;;2.22;;
72517;SDS011;60540;51.178;6.738;2023-08-08T06:43:17;7.47;;;3.58;;
72517;SDS011;60540;51.178;6.738;2023-08-08T06:45:42;6.88;;;2.45;;
72517;SDS011;60540;51.178;6.738;2023-08-08T06:48:08;9.38;;;2.70;;
72517;SDS011;60540;51.178;6.738;2023-08-08T06:50:34;8.55;;;2.80;;
72517;SDS011;60540;51.178;6.738;2023-08-08T06:53:00;9.52;;;2.85;;
72517;SDS011;60540;51.178;6.738;2023-08-08T06:55:26;8.63;;;2.92;;
72517;SDS011;60540;51.178;6.738;2023-08-08T06:57:52;7.38;;;3.08;;
72517;SDS011;60540;51.178;6.738;2023-08-08T07:00:17;7.25;;;2.53;;
72517;SDS011;60540;51.178;6.738;2023-08-08T07:02:43;7.47;;;2.60;;
72517;SDS011;60540;51.178;6.738;2023-08-08T07:05:09;6.18;;;2.80;;
72517;SDS011;60540;51.178;6.738;2023-08-08T07:07:36;8.85;;;3.05;;
72517;SDS011;60540;51.178;6.738;2023-08-08T07:10:01;6.63;;;3.13;;
72517;SDS011;60540;51.178;6.738;2023-08-08T07:12:29;5.75;;;2.78;;
72517;SDS011;60540;51.178;6.738;2023-08-08T07:14:55;5.53;;;2.72;;
72517;SDS011;60540;51.178;6.738;2023-08-08T07:17:20;8.88;;;3.10;;
72517;SDS011;60540;51.178;6.738;2023-08-08T07:19:46;6.57;;;3.08;;
72517;SDS011;60540;51.178;6.738;2023-08-08T07:22:12;7.13;;;3.10;;
72517;SDS011;60540;51.178;6.738;2023-08-08T07:24:37;6.57;;;2.55;;
72517;SDS011;60540;51.178;6.738;2023-08-08T07:27:04;12.13;;;3.15;;
72517;SDS011;60540;51.178;6.738;2023-08-08T07:29:30;7.43;;;3.25;;
72517;SDS011;60540;51.178;6.738;2023-08-08T07:31:57;6.13;;;2.67;;
72517;SDS011;60540;51.178;6.738;2023-08-08T07:34:23;5.80;;;2.92;;
72517;SDS011;60540;51.178;6.738;2023-08-08T07:36:49;5.93;;;2.65;;
72517;SDS011;60540;51.178;6.738;2023-08-08T07:39:14;6.07;;;2.97;;
72517;SDS011;60540;51.178;6.738;2023-08-08T07:41:40;7.78;;;3.35;;
72517;SDS011;60540;51.178;6.738;2023-08-08T07:44:06;9.68;;;2.85;;
72517;SDS011;60540;51.178;6.738;2023-08-08T07:46:32;10.07;;;2.72;;
72517;SDS011;60540;51.178;6.738;2023-08-08T07:48:57;7.13;;;3.10;;
72517;SDS011;60540;51.178;6.738;2023-08-08T07:51:29;9.00;;;2.90;;
72517;SDS011;60540;51.178;6.738;2023-08-08T07:53:55;11.77;;;3.20;;
72517;SDS011;60540;51.178;6.738;2023-08-08T07:56:21;4.88;;;2.67;;
72517;SDS011;60540;51.178;6.738;2023-08-08T07:58:46;6.13;;;2.88;;
72517;SDS011;60540;51.178;6.738;2023-08-08T08:01:12;6.07;;;2.78;;
72517;SDS011;60540;51.178;6.738;2023-08-08T08:03:39;6.88;;;2.92;;
72517;SDS011;60540;51.178;6.738;2023-08-08T08:06:05;8.98;;;2.47;;
72517;SDS011;60540;51.178;6.738;2023-08-08T08:08:31;5.78;;;2.70;;
72517;SDS011;60540;51.178;6.738;2023-08-08T08:10:57;11.20;;;3.40;;
72517;SDS011;60540;51.178;6.738;2023-08-08T08:13:22;8.00;;;2.63;;
72517;SDS011;60540;51.178;6.738;2023-08-08T08:15:48;12.95;;;3.00;;
72517;SDS011;60540;51.178;6.738;2023-08-08T08:18:14;6.15;;;2.90;;
72517;SDS011;60540;51.178;6.738;2023-08-08T08:20:43;7.72;;;3.15;;
72517;SDS011;60540;51.178;6.738;2023-08-08T08:23:09;9.75;;;2.92;;
72517;SDS011;60540;51.178;6.738;2023-08-08T08:25:35;7.57;;;2.67;;
72517;SDS011;60540;51.178;6.738;2023-08-08T08:28:01;6.18;;;2.75;;
72517;SDS011;60540;51.178;6.738;2023-08-08T08:30:27;6.97;;;2.72;;
72517;SDS011;60540;51.178;6.738;2023-08-08T08:32:52;6.72;;;2.75;;
72517;SDS011;60540;51.178;6.738;2023-08-08T08:35:18;9.38;;;3.08;;
72517;SDS011;60540;51.178;6.738;2023-08-08T08:37:44;6.88;;;2.83;;
72517;SDS011;60540;51.178;6.738;2023-08-08T08:40:10;6.25;;;2.97;;
72517;SDS011;60540;51.178;6.738;2023-08-08T08:42:37;7.72;;;3.03;;
72517;SDS011;60540;51.178;6.738;2023-08-08T08:45:03;7.63;;;2.42;;
72517;SDS011;60540;51.178;6.738;2023-08-08T08:47:30;11.02;;;3.47;;
72517;SDS011;60540;51.178;6.738;2023-08-08T08:49:57;7.50;;;3.00;;
72517;SDS011;60540;51.178;6.738;2023-08-08T08:52:24;8.15;;;2.75;;
72517;SDS011;60540;51.178;6.738;2023-08-08T08:54:50;6.68;;;3.00;;
72517;SDS011;60540;51.178;6.738;2023-08-08T08:57:16;5.63;;;2.58;;
72517;SDS011;60540;51.178;6.738;2023-08-08T08:59:42;6.20;;;2.65;;
72517;SDS011;60540;51.178;6.738;2023-08-08T09:02:08;8.07;;;3.08;;
72517;SDS011;60540;51.178;6.738;2023-08-08T09:04:34;6.78;;;2.83;;
72517;SDS011;60540;51.178;6.738;2023-08-08T09:07:00;9.27;;;2.70;;
72517;SDS011;60540;51.178;6.738;2023-08-08T09:09:26;5.72;;;2.83;;
72517;SDS011;60540;51.178;6.738;2023-08-08T09:11:52;6.05;;;2.30;;
72517;SDS011;60540;51.178;6.738;2023-08-08T09:14:22;7.35;;;2.83;;
72517;SDS011;60540;51.178;6.738;2023-08-08T09:16:50;5.30;;;2.70;;
72517;SDS011;60540;51.178;6.738;2023-08-08T09:19:19;8.75;;;2.35;;
72517;SDS011;60540;51.178;6.738;2023-08-08T09:21:46;7.03;;;2.95;;
72517;SDS011;60540;51.178;6.738;2023-08-08T09:24:13;6.70;;;2.85;;
72517;SDS011;60540;51.178;6.738;2023-08-08T09:26:39;7.38;;;2.70;;
72517;SDS011;60540;51.178;6.738;2023-08-08T09:29:05;6.35;;;2.80;;
72517;SDS011;60540;51.178;6.738;2023-08-08T09:31:31;10.95;;;2.83;;
72517;SDS011;60540;51.178;6.738;2023-08-08T09:34:00;6.28;;;2.40;;
72517;SDS011;60540;51.178;6.738;2023-08-08T09:36:26;7.53;;;3.13;;
72517;SDS011;60540;51.178;6.738;2023-08-08T09:38:52;7.80;;;2.80;;
72517;SDS011;60540;51.178;6.738;2023-08-08T09:41:19;7.40;;;2.47;;
72517;SDS011;60540;51.178;6.738;2023-08-08T09:43:49;6.45;;;2.75;;
72517;SDS011;60540;51.178;6.738;2023-08-08T09:46:16;8.25;;;2.90;;
72517;SDS011;60540;51.178;6.738;2023-08-08T09:48:43;7.40;;;2.97;;
72517;SDS011;60540;51.178;6.738;2023-08-08T09:51:09;5.03;;;2.63;;
72517;SDS011;60540;51.178;6.738;2023-08-08T09:53:35;8.00;;;2.70;;
72517;SDS011;60540;51.178;6.738;2023-08-08T09:56:01;6.65;;;2.75;;
72517;SDS011;60540;51.178;6.738;2023-08-08T09:58:29;7.47;;;3.17;;
72517;SDS011;60540;51.178;6.738;2023-08-08T10:00:55;7.00;;;2.70;;
72517;SDS011;60540;51.178;6.738;2023-08-08T10:03:21;6.55;;;2.40;;
72517;SDS011;60540;51.178;6.738;2023-08-08T10:05:47;5.63;;;2.67;;
72517;SDS011;60540;51.178;6.738;2023-08-08T10:08:16;5.65;;;2.47;;
72517;SDS011;60540;51.178;6.738;2023-08-08T10:10:44;6.82;;;2.58;;
72517;SDS011;60540;51.178;6.738;2023-08-08T10:13:18;7.43;;;2.92;;
72517;SDS011;60540;51.178;6.738;2023-08-08T10:15:47;6.45;;;2.90;;
72517;SDS011;60540;51.178;6.738;2023-08-08T10:18:14;6.38;;;2.50;;
72517;SDS011;60540;51.178;6.738;2023-08-08T10:20:42;4.07;;;2.53;;
72517;SDS011;60540;51.178;6.738;2023-08-08T10:23:09;5.13;;;2.70;;
72517;SDS011;60540;51.178;6.738;2023-08-08T10:25:35;6.47;;;2.70;;
72517;SDS011;60540;51.178;6.738;2023-08-08T10:28:03;5.05;;;2.70;;
72517;SDS011;60540;51.178;6.738;2023-08-08T10:30:30;6.47;;;2.50;;
72517;SDS011;60540;51.178;6.738;2023-08-08T10:33:17;6.70;;;3.00;;
72517;SDS011;60540;51.178;6.738;2023-08-08T10:38:25;10.75;;;2.92;;
72517;SDS011;60540;51.178;6.738;2023-08-08T10:40:58;5.60;;;2.72;;
72517;SDS011;60540;51.178;6.738;2023-08-08T10:43:25;4.78;;;2.60;;
72517;SDS011;60540;51.178;6.738;2023-08-08T10:45:58;6.85;;;3.38;;
72517;SDS011;60540;51.178;6.738;2023-08-08T10:48:25;6.25;;;2.70;;
72517;SDS011;60540;51.178;6.738;2023-08-08T10:50:53;4.38;;;2.78;;
72517;SDS011;60540;51.178;6.738;2023-08-08T10:53:22;6.03;;;2.85;;
72517;SDS011;60540;51.178;6.738;2023-08-08T10:55:56;7.10;;;2.83;;
72517;SDS011;60540;51.178;6.738;2023-08-08T10:58:35;6.07;;;3.10;;
72517;SDS011;60540;51.178;6.738;2023-08-08T11:01:02;6.05;;;2.40;;
72517;SDS011;60540;51.178;6.738;2023-08-08T11:03:30;6.93;;;2.60;;
72517;SDS011;60540;51.178;6.738;2023-08-08T11:05:57;7.25;;;3.05;;
72517;SDS011;60540;51.178;6.738;2023-08-08T11:08:22;6.32;;;2.20;;
72517;SDS011;60540;51.178;6.738;2023-08-08T11:10:51;5.43;;;2.65;;
72517;SDS011;60540;51.178;6.738;2023-08-08T11:13:17;7.18;;;2.28;;
72517;SDS011;60540;51.178;6.738;2023-08-08T11:15:43;5.65;;;2.20;;
72517;SDS011;60540;51.178;6.738;2023-08-08T11:18:09;4.90;;;2.25;;
72517;SDS011;60540;51.178;6.738;2023-08-08T11:20:35;4.93;;;2.10;;
72517;SDS011;60540;51.178;6.738;2023-08-08T11:23:02;6.60;;;2.45;;
72517;SDS011;60540;51.178;6.738;2023-08-08T11:25:31;4.40;;;2.33;;
72517;SDS011;60540;51.178;6.738;2023-08-08T11:27:57;4.90;;;2.40;;
72517;SDS011;60540;51.178;6.738;2023-08-08T11:30:24;4.32;;;2.03;;
72517;SDS011;60540;51.178;6.738;2023-08-08T11:32:55;4.28;;;1.95;;
72517;SDS011;60540;51.178;6.738;2023-08-08T11:35:24;5.72;;;2.00;;
72517;SDS011;60540;51.178;6.738;2023-08-08T11:37:54;5.40;;;1.92;;
72517;SDS011;60540;51.178;6.738;2023-08-08T11:40:22;5.43;;;1.98;;
72517;SDS011;60540;51.178;6.738;2023-08-08T11:42:49;5.35;;;2.00;;
72517;SDS011;60540;51.178;6.738;2023-08-08T11:45:16;5.00;;;2.47;;
72517;SDS011;60540;51.178;6.738;2023-08-08T11:47:43;5.43;;;1.98;;
72517;SDS011;60540;51.178;6.738;2023-08-08T11:50:13;4.55;;;2.13;;
72517;SDS011;60540;51.178;6.738;2023-08-08T11:52:39;5.50;;;2.03;;
72517;SDS011;60540;51.178;6.738;2023-08-08T11:55:09;7.00;;;2.08;;
72517;SDS011;60540;51.178;6.738;2023-08-08T11:57:35;7.40;;;2.45;;
72517;SDS011;60540;51.178;6.738;2023-08-08T12:00:03;5.68;;;2.10;;
72517;SDS011;60540;51.178;6.738;2023-08-08T12:02:33;5.53;;;2.08;;
72517;SDS011;60540;51.178;6.738;2023-08-08T12:05:06;7.20;;;2.05;;
72517;SDS011;60540;51.178;6.738;2023-08-08T12:07:33;7.80;;;2.30;;
72517;SDS011;60540;51.178;6.738;2023-08-08T12:09:59;6.10;;;2.13;;
72517;SDS011;60540;51.178;6.738;2023-08-08T12:12:26;4.82;;;2.10;;
72517;SDS011;60540;51.178;6.738;2023-08-08T12:17:20;6.25;;;2.10;;
72517;SDS011;60540;51.178;6.738;2023-08-08T12:19:46;4.82;;;2.30;;
72517;SDS011;60540;51.178;6.738;2023-08-08T12:24:38;4.60;;;2.00;;
72517;SDS011;60540;51.178;6.738;2023-08-08T12:27:04;4.53;;;1.85;;
72517;SDS011;60540;51.178;6.738;2023-08-08T12:29:30;5.47;;;2.38;;
72517;SDS011;60540;51.178;6.738;2023-08-08T12:31:56;4.18;;;1.95;;
72517;SDS011;60540;51.178;6.738;2023-08-08T12:34:22;4.18;;;2.08;;
72517;SDS011;60540;51.178;6.738;2023-08-08T12:36:48;4.25;;;2.08;;
72517;SDS011;60540;51.178;6.738;2023-08-08T12:39:13;3.35;;;1.90;;
72517;SDS011;60540;51.178;6.738;2023-08-08T12:41:39;4.22;;;1.88;;
72517;SDS011;60540;51.178;6.738;2023-08-08T12:44:05;4.35;;;1.73;;
72517;SDS011;60540;51.178;6.738;2023-08-08T12:46:31;4.25;;;2.00;;
72517;SDS011;60540;51.178;6.738;2023-08-08T12:48:57;4.60;;;2.30;;
72517;SDS011;60540;51.178;6.738;2023-08-08T12:51:23;6.18;;;2.20;;
72517;SDS011;60540;51.178;6.738;2023-08-08T12:53:48;4.25;;;2.10;;
72517;SDS011;60540;51.178;6.738;2023-08-08T12:56:15;4.93;;;2.30;;
72517;SDS011;60540;51.178;6.738;2023-08-08T12:58:41;4.80;;;2.70;;
72517;SDS011;60540;51.178;6.738;2023-08-08T13:01:07;4.70;;;1.90;;
72517;SDS011;60540;51.178;6.738;2023-08-08T13:03:33;7.20;;;2.40;;
72517;SDS011;60540;51.178;6.738;2023-08-08T13:08:25;4.90;;;2.22;;
72517;SDS011;60540;51.178;6.738;2023-08-08T13:10:51;5.25;;;2.10;;
72517;SDS011;60540;51.178;6.738;2023-08-08T13:13:17;5.63;;;2.50;;
72517;SDS011;60540;51.178;6.738;2023-08-08T13:15:42;7.60;;;2.58;;
72517;SDS011;60540;51.178;6.738;2023-08-08T13:18:09;5.75;;;2.28;;
72517;SDS011;60540;51.178;6.738;2023-08-08T13:20:34;4.20;;;2.25;;
72517;SDS011;60540;51.178;6.738;2023-08-08T13:23:00;5.22;;;2.10;;
72517;SDS011;60540;51.178;6.738;2023-08-08T13:25:26;4.88;;;2.25;;
72517;SDS011;60540;51.178;6.738;2023-08-08T13:27:51;3.83;;;1.83;;
72517;SDS011;60540;51.178;6.738;2023-08-08T13:30:17;4.38;;;2.25;;
72517;SDS011;60540;51.178;6.738;2023-08-08T13:32:43;4.63;;;2.30;;
72517;SDS011;60540;51.178;6.738;2023-08-08T13:35:09;4.47;;;2.10;;
72517;SDS011;60540;51.178;6.738;2023-08-08T13:37:35;5.53;;;2.55;;
72517;SDS011;60540;51.178;6.738;2023-08-08T13:40:01;3.75;;;1.90;;
72517;SDS011;60540;51.178;6.738;2023-08-08T13:42:27;4.55;;;1.83;;
72517;SDS011;60540;51.178;6.738;2023-08-08T13:44:52;4.40;;;2.03;;
72517;SDS011;60540;51.178;6.738;2023-08-08T13:47:18;5.32;;;1.95;;
72517;SDS011;60540;51.178;6.738;2023-08-08T13:49:44;6.50;;;2.00;;
72517;SDS011;60540;51.178;6.738;2023-08-08T13:52:09;3.17;;;1.80;;
72517;SDS011;60540;51.178;6.738;2023-08-08T13:54:36;4.45;;;1.80;;
72517;SDS011;60540;51.178;6.738;2023-08-08T13:57:01;7.20;;;2.25;;
72517;SDS011;60540;51.178;6.738;2023-08-08T13:59:27;4.63;;;2.20;;
72517;SDS011;60540;51.178;6.738;2023-08-08T14:01:53;5.68;;;2.58;;
72517;SDS011;60540;51.178;6.738;2023-08-08T14:04:19;4.40;;;1.73;;
72517;SDS011;60540;51.178;6.738;2023-08-08T14:06:44;4.63;;;1.90;;
72517;SDS011;60540;51.178;6.738;2023-08-08T14:09:10;4.55;;;1.60;;
72517;SDS011;60540;51.178;6.738;2023-08-08T14:11:36;5.43;;;1.40;;
72517;SDS011;60540;51.178;6.738;2023-08-08T14:14:02;4.13;;;1.60;;
72517;SDS011;60540;51.178;6.738;2023-08-08T14:16:28;7.38;;;1.63;;
72517;SDS011;60540;51.178;6.738;2023-08-08T14:18:54;4.25;;;1.90;;
72517;SDS011;60540;51.178;6.738;2023-08-08T14:21:20;5.90;;;1.95;;
72517;SDS011;60540;51.178;6.738;2023-08-08T14:23:45;6.00;;;1.90;;
72517;SDS011;60540;51.178;6.738;2023-08-08T14:26:12;4.90;;;1.98;;
72517;SDS011;60540;51.178;6.738;2023-08-08T14:28:38;6.18;;;1.73;;
72517;SDS011;60540;51.178;6.738;2023-08-08T14:31:03;5.13;;;1.77;;
72517;SDS011;60540;51.178;6.738;2023-08-08T14:33:32;4.53;;;2.10;;
72517;SDS011;60540;51.178;6.738;2023-08-08T14:35:58;3.97;;;1.70;;
72517;SDS011;60540;51.178;6.738;2023-08-08T14:38:24;7.70;;;1.58;;
72517;SDS011;60540;51.178;6.738;2023-08-08T14:40:50;3.10;;;1.80;;
72517;SDS011;60540;51.178;6.738;2023-08-08T14:43:18;4.32;;;2.08;;
72517;SDS011;60540;51.178;6.738;2023-08-08T14:45:44;4.80;;;1.75;;
72517;SDS011;60540;51.178;6.738;2023-08-08T14:48:10;4.90;;;1.50;;
72517;SDS011;60540;51.178;6.738;2023-08-08T14:50:35;4.28;;;1.85;;
72517;SDS011;60540;51.178;6.738;2023-08-08T14:53:01;3.50;;;1.52;;